sensor_id;sensor_type;location;lat;lon;timestamp;P1;durP1;ratioP1;P2;durP2;ratioP2
80987;SDS011;70452;39.386;-3.210;2023-12-04T00:00:13;12.57;;;4.38;;
80987;SDS011;70452;39.386;-3.210;2023-12-04T00:05:42;14.13;;;5.35;;
80987;SDS011;70452;39.386;-3.210;2023-12-04T00:08:19;13.77;;;5.47;;
80987;SDS011;70452;39.386;-3.210;2023-12-04T00:10:50;11.77;;;4.00;;
80987;SDS011;70452;39.386;-3.210;2023-12-04T00:13:29;11.68;;;4.47;;
80987;SDS011;70452;39.386;-3.210;2023-12-04T00:15:59;11.52;;;4.15;;
80987;SDS011;70452;39.386;-3.210;2023-12-04T00:18:31;10.40;;;3.92;;
80987;SDS011;70452;39.386;-3.210;2023-12-04T00:21:20;10.02;;;3.47;;
80987;SDS011;70452;39.386;-3.210;2023-12-04T00:23:50;9.65;;;3.45;;
80987;SDS011;70452;39.386;-3.210;2023-12-04T00:26:20;11.05;;;3.85;;
80987;SDS011;70452;39.386;-3.210;2023-12-04T00:28:49;11.23;;;4.10;;
80987;SDS011;70452;39.386;-3.210;2023-12-04T00:31:23;12.80;;;4.57;;
80987;SDS011;70452;39.386;-3.210;2023-12-04T00:33:52;14.50;;;5.60;;
80987;SDS011;70452;39.386;-3.210;2023-12-04T00:36:26;12.27;;;4.40;;
80987;SDS011;70452;39.386;-3.210;2023-12-04T00:39:00;16.10;;;5.72;;
80987;SDS011;70452;39.386;-3.210;2023-12-04T00:44:25;10.88;;;4.07;;
80987;SDS011;70452;39.386;-3.210;2023-12-04T00:47:08;11.32;;;4.22;;
80987;SDS011;70452;39.386;-3.210;2023-12-04T00:49:40;11.30;;;3.78;;
80987;SDS011;70452;39.386;-3.210;2023-12-04T00:52:09;12.50;;;4.65;;
80987;SDS011;70452;39.386;-3.210;2023-12-04T00:54:44;12.85;;;4.55;;
80987;SDS011;70452;39.386;-3.210;2023-12-04T00:57:16;10.23;;;4.13;;
80987;SDS011;70452;39.386;-3.210;2023-12-04T00:59:45;10.98;;;3.97;;
80987;SDS011;70452;39.386;-3.210;2023-12-04T01:02:18;11.52;;;4.25;;
80987;SDS011;70452;39.386;-3.210;2023-12-04T01:05:04;11.07;;;4.63;;
80987;SDS011;70452;39.386;-3.210;2023-12-04T01:07:33;11.55;;;4.45;;
80987;SDS011;70452;39.386;-3.210;2023-12-04T01:10:09;13.15;;;4.22;;
80987;SDS011;70452;39.386;-3.210;2023-12-04T01:12:35;13.60;;;5.00;;
80987;SDS011;70452;39.386;-3.210;2023-12-04T01:15:07;13.27;;;5.13;;
80987;SDS011;70452;39.386;-3.210;2023-12-04T01:17:47;12.55;;;5.55;;
80987;SDS011;70452;39.386;-3.210;2023-12-04T01:20:19;10.68;;;4.90;;
80987;SDS011;70452;39.386;-3.210;2023-12-04T01:23:00;10.20;;;3.63;;
80987;SDS011;70452;39.386;-3.210;2023-12-04T01:25:32;11.80;;;4.18;;
80987;SDS011;70452;39.386;-3.210;2023-12-04T01:28:06;11.40;;;4.70;;
80987;SDS011;70452;39.386;-3.210;2023-12-04T01:30:43;11.73;;;3.53;;
80987;SDS011;70452;39.386;-3.210;2023-12-04T01:33:19;7.72;;;2.80;;
80987;SDS011;70452;39.386;-3.210;2023-12-04T01:35:58;6.22;;;2.08;;
80987;SDS011;70452;39.386;-3.210;2023-12-04T01:38:27;11.73;;;3.53;;
80987;SDS011;70452;39.386;-3.210;2023-12-04T01:41:08;9.18;;;2.92;;
80987;SDS011;70452;39.386;-3.210;2023-12-04T01:43:49;11.18;;;4.03;;
80987;SDS011;70452;39.386;-3.210;2023-12-04T01:46:29;12.15;;;3.65;;
80987;SDS011;70452;39.386;-3.210;2023-12-04T01:48:58;10.25;;;3.97;;
80987;SDS011;70452;39.386;-3.210;2023-12-04T01:51:42;14.32;;;4.45;;
80987;SDS011;70452;39.386;-3.210;2023-12-04T01:54:15;10.70;;;4.05;;
80987;SDS011;70452;39.386;-3.210;2023-12-04T01:56:50;12.73;;;4.97;;
80987;SDS011;70452;39.386;-3.210;2023-12-04T01:59:28;9.27;;;3.65;;
80987;SDS011;70452;39.386;-3.210;2023-12-04T02:02:02;10.63;;;4.18;;
80987;SDS011;70452;39.386;-3.210;2023-12-04T02:04:35;8.85;;;3.22;;
80987;SDS011;70452;39.386;-3.210;2023-12-04T02:07:04;10.52;;;3.33;;
80987;SDS011;70452;39.386;-3.210;2023-12-04T02:09:42;7.88;;;2.50;;
80987;SDS011;70452;39.386;-3.210;2023-12-04T02:12:17;8.30;;;3.28;;
80987;SDS011;70452;39.386;-3.210;2023-12-04T02:14:56;7.07;;;2.42;;
80987;SDS011;70452;39.386;-3.210;2023-12-04T02:17:35;10.02;;;4.35;;
80987;SDS011;70452;39.386;-3.210;2023-12-04T02:20:06;11.88;;;3.92;;
80987;SDS011;70452;39.386;-3.210;2023-12-04T02:22:39;10.75;;;3.95;;
80987;SDS011;70452;39.386;-3.210;2023-12-04T02:25:20;9.40;;;4.10;;
80987;SDS011;70452;39.386;-3.210;2023-12-04T02:27:52;7.50;;;2.53;;
80987;SDS011;70452;39.386;-3.210;2023-12-04T02:30:27;8.77;;;3.63;;
80987;SDS011;70452;39.386;-3.210;2023-12-04T02:33:01;8.95;;;3.30;;
80987;SDS011;70452;39.386;-3.210;2023-12-04T02:35:37;14.80;;;4.47;;
80987;SDS011;70452;39.386;-3.210;2023-12-04T02:38:14;11.73;;;4.63;;
80987;SDS011;70452;39.386;-3.210;2023-12-04T02:40:52;9.43;;;4.03;;
80987;SDS011;70452;39.386;-3.210;2023-12-04T02:43:27;11.35;;;4.53;;
80987;SDS011;70452;39.386;-3.210;2023-12-04T02:45:58;9.98;;;3.30;;
80987;SDS011;70452;39.386;-3.210;2023-12-04T02:48:52;8.88;;;3.67;;
80987;SDS011;70452;39.386;-3.210;2023-12-04T02:51:29;11.13;;;4.80;;
80987;SDS011;70452;39.386;-3.210;2023-12-04T02:54:07;9.45;;;3.15;;
80987;SDS011;70452;39.386;-3.210;2023-12-04T02:56:44;9.18;;;2.50;;
80987;SDS011;70452;39.386;-3.210;2023-12-04T02:59:27;13.20;;;5.13;;
80987;SDS011;70452;39.386;-3.210;2023-12-04T03:02:02;8.52;;;3.25;;
80987;SDS011;70452;39.386;-3.210;2023-12-04T03:04:46;12.00;;;3.75;;
80987;SDS011;70452;39.386;-3.210;2023-12-04T03:07:21;11.05;;;3.30;;
80987;SDS011;70452;39.386;-3.210;2023-12-04T03:09:53;12.40;;;4.57;;
80987;SDS011;70452;39.386;-3.210;2023-12-04T03:12:34;8.23;;;2.90;;
80987;SDS011;70452;39.386;-3.210;2023-12-04T03:15:06;9.82;;;4.07;;
80987;SDS011;70452;39.386;-3.210;2023-12-04T03:17:49;14.35;;;4.07;;
80987;SDS011;70452;39.386;-3.210;2023-12-04T03:20:21;8.77;;;2.35;;
80987;SDS011;70452;39.386;-3.210;2023-12-04T03:22:59;9.00;;;3.55;;
80987;SDS011;70452;39.386;-3.210;2023-12-04T03:25:34;8.38;;;3.45;;
80987;SDS011;70452;39.386;-3.210;2023-12-04T03:28:06;7.78;;;3.25;;
80987;SDS011;70452;39.386;-3.210;2023-12-04T03:30:54;13.35;;;4.10;;
80987;SDS011;70452;39.386;-3.210;2023-12-04T03:33:26;8.18;;;2.95;;
80987;SDS011;70452;39.386;-3.210;2023-12-04T03:35:55;9.30;;;3.17;;
80987;SDS011;70452;39.386;-3.210;2023-12-04T03:38:30;7.95;;;2.50;;
80987;SDS011;70452;39.386;-3.210;2023-12-04T03:43:35;7.20;;;2.30;;
80987;SDS011;70452;39.386;-3.210;2023-12-04T03:46:13;8.38;;;3.20;;
80987;SDS011;70452;39.386;-3.210;2023-12-04T03:48:50;7.20;;;2.90;;
80987;SDS011;70452;39.386;-3.210;2023-12-04T03:54:35;11.07;;;3.65;;
80987;SDS011;70452;39.386;-3.210;2023-12-04T03:57:06;6.22;;;2.08;;
80987;SDS011;70452;39.386;-3.210;2023-12-04T03:59:38;6.78;;;2.17;;
80987;SDS011;70452;39.386;-3.210;2023-12-04T04:02:19;7.18;;;1.77;;
80987;SDS011;70452;39.386;-3.210;2023-12-04T04:05:00;7.07;;;1.90;;
80987;SDS011;70452;39.386;-3.210;2023-12-04T04:07:52;3.90;;;0.90;;
80987;SDS011;70452;39.386;-3.210;2023-12-04T04:10:36;6.63;;;2.33;;
80987;SDS011;70452;39.386;-3.210;2023-12-04T04:13:11;5.13;;;1.38;;
80987;SDS011;70452;39.386;-3.210;2023-12-04T04:15:42;8.75;;;2.15;;
80987;SDS011;70452;39.386;-3.210;2023-12-04T04:18:15;10.10;;;1.95;;
80987;SDS011;70452;39.386;-3.210;2023-12-04T04:20:48;5.38;;;1.45;;
80987;SDS011;70452;39.386;-3.210;2023-12-04T04:23:22;5.43;;;1.58;;
80987;SDS011;70452;39.386;-3.210;2023-12-04T04:25:53;6.22;;;1.98;;
80987;SDS011;70452;39.386;-3.210;2023-12-04T04:28:24;7.80;;;1.77;;
80987;SDS011;70452;39.386;-3.210;2023-12-04T04:31:00;6.22;;;1.35;;
80987;SDS011;70452;39.386;-3.210;2023-12-04T04:33:35;6.63;;;1.80;;
80987;SDS011;70452;39.386;-3.210;2023-12-04T04:36:12;3.47;;;0.82;;
80987;SDS011;70452;39.386;-3.210;2023-12-04T04:38:46;5.18;;;1.17;;
80987;SDS011;70452;39.386;-3.210;2023-12-04T04:41:20;7.80;;;1.77;;
80987;SDS011;70452;39.386;-3.210;2023-12-04T04:43:50;8.10;;;2.15;;
80987;SDS011;70452;39.386;-3.210;2023-12-04T04:46:29;6.78;;;1.88;;
80987;SDS011;70452;39.386;-3.210;2023-12-04T04:49:00;7.63;;;1.40;;
80987;SDS011;70452;39.386;-3.210;2023-12-04T04:51:28;4.88;;;1.10;;
80987;SDS011;70452;39.386;-3.210;2023-12-04T04:54:02;6.25;;;1.55;;
80987;SDS011;70452;39.386;-3.210;2023-12-04T04:56:36;5.15;;;1.75;;
80987;SDS011;70452;39.386;-3.210;2023-12-04T04:59:10;5.75;;;1.42;;
80987;SDS011;70452;39.386;-3.210;2023-12-04T05:01:44;5.88;;;1.38;;
80987;SDS011;70452;39.386;-3.210;2023-12-04T05:04:27;5.15;;;1.20;;
80987;SDS011;70452;39.386;-3.210;2023-12-04T05:07:03;6.47;;;1.65;;
80987;SDS011;70452;39.386;-3.210;2023-12-04T05:09:43;5.20;;;1.25;;
80987;SDS011;70452;39.386;-3.210;2023-12-04T05:12:21;5.00;;;1.05;;
80987;SDS011;70452;39.386;-3.210;2023-12-04T05:15:00;5.60;;;1.65;;
80987;SDS011;70452;39.386;-3.210;2023-12-04T05:17:29;5.95;;;1.25;;
80987;SDS011;70452;39.386;-3.210;2023-12-04T05:20:07;4.78;;;0.98;;
80987;SDS011;70452;39.386;-3.210;2023-12-04T05:22:36;4.03;;;1.15;;
80987;SDS011;70452;39.386;-3.210;2023-12-04T05:25:10;5.97;;;1.75;;
80987;SDS011;70452;39.386;-3.210;2023-12-04T05:27:39;7.68;;;2.05;;
80987;SDS011;70452;39.386;-3.210;2023-12-04T05:30:21;4.25;;;1.02;;
80987;SDS011;70452;39.386;-3.210;2023-12-04T05:32:51;5.07;;;1.40;;
80987;SDS011;70452;39.386;-3.210;2023-12-04T05:35:25;3.83;;;1.02;;
80987;SDS011;70452;39.386;-3.210;2023-12-04T05:38:04;6.30;;;1.65;;
80987;SDS011;70452;39.386;-3.210;2023-12-04T05:40:39;6.65;;;1.70;;
80987;SDS011;70452;39.386;-3.210;2023-12-04T05:45:44;4.57;;;1.63;;
80987;SDS011;70452;39.386;-3.210;2023-12-04T05:48:16;4.93;;;1.30;;
80987;SDS011;70452;39.386;-3.210;2023-12-04T05:50:54;3.40;;;0.73;;
80987;SDS011;70452;39.386;-3.210;2023-12-04T05:53:26;6.05;;;2.05;;
80987;SDS011;70452;39.386;-3.210;2023-12-04T05:58:49;4.30;;;1.13;;
80987;SDS011;70452;39.386;-3.210;2023-12-04T06:01:28;4.40;;;0.77;;
80987;SDS011;70452;39.386;-3.210;2023-12-04T06:03:53;3.97;;;0.77;;
80987;SDS011;70452;39.386;-3.210;2023-12-04T06:06:29;6.60;;;1.38;;
80987;SDS011;70452;39.386;-3.210;2023-12-04T06:09:00;4.22;;;0.82;;
80987;SDS011;70452;39.386;-3.210;2023-12-04T06:11:51;6.07;;;1.05;;
80987;SDS011;70452;39.386;-3.210;2023-12-04T06:14:36;5.68;;;0.85;;
80987;SDS011;70452;39.386;-3.210;2023-12-04T06:17:13;3.58;;;0.98;;
80987;SDS011;70452;39.386;-3.210;2023-12-04T06:19:48;3.80;;;0.60;;
80987;SDS011;70452;39.386;-3.210;2023-12-04T06:22:16;3.33;;;1.42;;
80987;SDS011;70452;39.386;-3.210;2023-12-04T06:25:06;4.80;;;1.33;;
80987;SDS011;70452;39.386;-3.210;2023-12-04T06:27:38;3.63;;;0.63;;
80987;SDS011;70452;39.386;-3.210;2023-12-04T06:30:08;4.43;;;0.70;;
80987;SDS011;70452;39.386;-3.210;2023-12-04T06:32:37;3.85;;;1.02;;
80987;SDS011;70452;39.386;-3.210;2023-12-04T06:35:20;3.70;;;0.63;;
80987;SDS011;70452;39.386;-3.210;2023-12-04T06:37:49;6.60;;;1.40;;
80987;SDS011;70452;39.386;-3.210;2023-12-04T06:40:33;3.30;;;0.68;;
80987;SDS011;70452;39.386;-3.210;2023-12-04T06:43:09;5.25;;;1.05;;
80987;SDS011;70452;39.386;-3.210;2023-12-04T06:45:44;3.05;;;1.05;;
80987;SDS011;70452;39.386;-3.210;2023-12-04T06:48:17;2.90;;;0.55;;
80987;SDS011;70452;39.386;-3.210;2023-12-04T06:50:56;2.85;;;0.40;;
80987;SDS011;70452;39.386;-3.210;2023-12-04T06:53:36;3.20;;;0.60;;
80987;SDS011;70452;39.386;-3.210;2023-12-04T06:56:34;3.85;;;0.77;;
80987;SDS011;70452;39.386;-3.210;2023-12-04T06:59:14;8.10;;;1.15;;
80987;SDS011;70452;39.386;-3.210;2023-12-04T07:04:33;7.40;;;1.60;;
80987;SDS011;70452;39.386;-3.210;2023-12-04T07:07:10;7.95;;;1.77;;
80987;SDS011;70452;39.386;-3.210;2023-12-04T07:09:59;7.70;;;1.70;;
80987;SDS011;70452;39.386;-3.210;2023-12-04T07:12:35;6.57;;;1.85;;
80987;SDS011;70452;39.386;-3.210;2023-12-04T07:15:09;6.68;;;1.45;;
80987;SDS011;70452;39.386;-3.210;2023-12-04T07:17:52;7.72;;;1.95;;
80987;SDS011;70452;39.386;-3.210;2023-12-04T07:20:42;6.18;;;1.30;;
80987;SDS011;70452;39.386;-3.210;2023-12-04T07:23:21;6.75;;;1.65;;
80987;SDS011;70452;39.386;-3.210;2023-12-04T07:26:08;7.43;;;1.95;;
80987;SDS011;70452;39.386;-3.210;2023-12-04T07:28:45;5.82;;;1.08;;
80987;SDS011;70452;39.386;-3.210;2023-12-04T07:31:20;5.20;;;0.80;;
80987;SDS011;70452;39.386;-3.210;2023-12-04T07:34:05;5.57;;;1.20;;
80987;SDS011;70452;39.386;-3.210;2023-12-04T07:36:37;4.25;;;0.90;;
80987;SDS011;70452;39.386;-3.210;2023-12-04T07:39:08;6.05;;;0.80;;
80987;SDS011;70452;39.386;-3.210;2023-12-04T07:44:27;6.75;;;1.48;;
80987;SDS011;70452;39.386;-3.210;2023-12-04T07:46:55;9.77;;;2.58;;
80987;SDS011;70452;39.386;-3.210;2023-12-04T07:49:32;6.63;;;1.00;;
80987;SDS011;70452;39.386;-3.210;2023-12-04T07:52:04;4.78;;;1.00;;
80987;SDS011;70452;39.386;-3.210;2023-12-04T07:54:36;5.20;;;1.25;;
80987;SDS011;70452;39.386;-3.210;2023-12-04T07:57:18;4.95;;;0.95;;
80987;SDS011;70452;39.386;-3.210;2023-12-04T07:59:54;4.68;;;0.65;;
80987;SDS011;70452;39.386;-3.210;2023-12-04T08:02:31;4.80;;;1.38;;
80987;SDS011;70452;39.386;-3.210;2023-12-04T08:05:06;4.70;;;0.60;;
80987;SDS011;70452;39.386;-3.210;2023-12-04T08:07:44;4.78;;;0.85;;
80987;SDS011;70452;39.386;-3.210;2023-12-04T08:10:16;5.45;;;0.90;;
80987;SDS011;70452;39.386;-3.210;2023-12-04T08:13:02;6.07;;;1.50;;
80987;SDS011;70452;39.386;-3.210;2023-12-04T08:15:37;5.05;;;0.82;;
80987;SDS011;70452;39.386;-3.210;2023-12-04T08:18:12;5.35;;;1.10;;
80987;SDS011;70452;39.386;-3.210;2023-12-04T08:20:49;5.97;;;1.02;;
80987;SDS011;70452;39.386;-3.210;2023-12-04T08:23:27;5.50;;;1.25;;
80987;SDS011;70452;39.386;-3.210;2023-12-04T08:26:04;4.43;;;0.60;;
80987;SDS011;70452;39.386;-3.210;2023-12-04T08:28:43;3.85;;;0.60;;
80987;SDS011;70452;39.386;-3.210;2023-12-04T08:31:19;3.53;;;0.90;;
80987;SDS011;70452;39.386;-3.210;2023-12-04T08:33:51;5.63;;;1.30;;
80987;SDS011;70452;39.386;-3.210;2023-12-04T08:36:25;4.72;;;0.82;;
80987;SDS011;70452;39.386;-3.210;2023-12-04T08:39:01;3.75;;;0.70;;
80987;SDS011;70452;39.386;-3.210;2023-12-04T08:41:39;5.70;;;1.17;;
80987;SDS011;70452;39.386;-3.210;2023-12-04T08:44:15;5.57;;;1.13;;
80987;SDS011;70452;39.386;-3.210;2023-12-04T08:46:53;6.38;;;1.05;;
80987;SDS011;70452;39.386;-3.210;2023-12-04T08:49:23;5.57;;;0.85;;
80987;SDS011;70452;39.386;-3.210;2023-12-04T08:52:01;5.22;;;1.23;;
80987;SDS011;70452;39.386;-3.210;2023-12-04T08:54:43;5.03;;;1.17;;
80987;SDS011;70452;39.386;-3.210;2023-12-04T08:57:18;5.90;;;0.77;;
80987;SDS011;70452;39.386;-3.210;2023-12-04T08:59:47;5.57;;;1.00;;
80987;SDS011;70452;39.386;-3.210;2023-12-04T09:02:23;5.50;;;1.08;;
80987;SDS011;70452;39.386;-3.210;2023-12-04T09:05:00;4.47;;;0.98;;
80987;SDS011;70452;39.386;-3.210;2023-12-04T09:07:46;13.27;;;5.90;;
80987;SDS011;70452;39.386;-3.210;2023-12-04T09:10:21;26.27;;;12.05;;
80987;SDS011;70452;39.386;-3.210;2023-12-04T09:12:46;44.28;;;20.75;;
80987;SDS011;70452;39.386;-3.210;2023-12-04T09:15:21;17.88;;;7.20;;
80987;SDS011;70452;39.386;-3.210;2023-12-04T09:17:57;5.22;;;1.30;;
80987;SDS011;70452;39.386;-3.210;2023-12-04T09:20:28;4.18;;;0.88;;
80987;SDS011;70452;39.386;-3.210;2023-12-04T09:23:12;4.15;;;0.60;;
80987;SDS011;70452;39.386;-3.210;2023-12-04T09:25:50;4.20;;;0.70;;
80987;SDS011;70452;39.386;-3.210;2023-12-04T09:28:22;5.32;;;1.42;;
80987;SDS011;70452;39.386;-3.210;2023-12-04T09:30:54;6.03;;;1.10;;
80987;SDS011;70452;39.386;-3.210;2023-12-04T09:33:26;3.53;;;0.60;;
80987;SDS011;70452;39.386;-3.210;2023-12-04T09:35:59;3.53;;;0.73;;
80987;SDS011;70452;39.386;-3.210;2023-12-04T09:38:44;4.25;;;0.50;;
80987;SDS011;70452;39.386;-3.210;2023-12-04T09:41:24;6.45;;;1.33;;
80987;SDS011;70452;39.386;-3.210;2023-12-04T09:44:02;8.85;;;3.15;;
80987;SDS011;70452;39.386;-3.210;2023-12-04T09:46:35;7.78;;;1.95;;
80987;SDS011;70452;39.386;-3.210;2023-12-04T09:49:07;4.80;;;1.27;;
80987;SDS011;70452;39.386;-3.210;2023-12-04T09:52:06;5.25;;;1.05;;
80987;SDS011;70452;39.386;-3.210;2023-12-04T09:54:52;4.75;;;1.30;;
80987;SDS011;70452;39.386;-3.210;2023-12-04T09:57:26;6.22;;;1.92;;
80987;SDS011;70452;39.386;-3.210;2023-12-04T10:00:01;3.63;;;0.45;;
80987;SDS011;70452;39.386;-3.210;2023-12-04T10:02:36;12.10;;;0.82;;
80987;SDS011;70452;39.386;-3.210;2023-12-04T10:05:15;1.48;;;0.25;;
80987;SDS011;70452;39.386;-3.210;2023-12-04T10:07:53;3.85;;;0.63;;
80987;SDS011;70452;39.386;-3.210;2023-12-04T10:10:42;12.73;;;5.65;;
80987;SDS011;70452;39.386;-3.210;2023-12-04T10:13:14;11.80;;;4.05;;
80987;SDS011;70452;39.386;-3.210;2023-12-04T10:15:47;7.32;;;1.95;;
80987;SDS011;70452;39.386;-3.210;2023-12-04T10:18:30;4.97;;;1.55;;
80987;SDS011;70452;39.386;-3.210;2023-12-04T10:21:05;4.85;;;0.60;;
80987;SDS011;70452;39.386;-3.210;2023-12-04T10:23:40;3.63;;;0.60;;
80987;SDS011;70452;39.386;-3.210;2023-12-04T10:26:14;3.42;;;0.70;;
80987;SDS011;70452;39.386;-3.210;2023-12-04T10:28:59;2.97;;;0.60;;
80987;SDS011;70452;39.386;-3.210;2023-12-04T10:34:09;2.72;;;0.40;;
80987;SDS011;70452;39.386;-3.210;2023-12-04T10:36:42;4.63;;;1.30;;
80987;SDS011;70452;39.386;-3.210;2023-12-04T10:39:26;4.40;;;0.90;;
80987;SDS011;70452;39.386;-3.210;2023-12-04T10:42:25;3.95;;;0.65;;
80987;SDS011;70452;39.386;-3.210;2023-12-04T10:45:05;3.80;;;0.70;;
80987;SDS011;70452;39.386;-3.210;2023-12-04T10:47:43;3.97;;;0.70;;
80987;SDS011;70452;39.386;-3.210;2023-12-04T10:50:13;3.28;;;0.60;;
80987;SDS011;70452;39.386;-3.210;2023-12-04T10:52:57;5.88;;;0.93;;
80987;SDS011;70452;39.386;-3.210;2023-12-04T10:55:30;3.92;;;1.02;;
80987;SDS011;70452;39.386;-3.210;2023-12-04T10:58:10;5.38;;;0.90;;
80987;SDS011;70452;39.386;-3.210;2023-12-04T11:00:45;3.92;;;0.68;;
80987;SDS011;70452;39.386;-3.210;2023-12-04T11:03:25;5.95;;;0.68;;
80987;SDS011;70452;39.386;-3.210;2023-12-04T11:06:03;4.82;;;1.02;;
80987;SDS011;70452;39.386;-3.210;2023-12-04T11:08:43;3.67;;;0.70;;
80987;SDS011;70452;39.386;-3.210;2023-12-04T11:11:22;4.95;;;0.70;;
80987;SDS011;70452;39.386;-3.210;2023-12-04T11:14:05;2.90;;;0.63;;
80987;SDS011;70452;39.386;-3.210;2023-12-04T11:16:48;3.95;;;0.60;;
80987;SDS011;70452;39.386;-3.210;2023-12-04T11:22:21;5.13;;;0.68;;
80987;SDS011;70452;39.386;-3.210;2023-12-04T11:24:56;3.00;;;0.50;;
80987;SDS011;70452;39.386;-3.210;2023-12-04T11:27:36;6.10;;;0.70;;
80987;SDS011;70452;39.386;-3.210;2023-12-04T11:30:11;4.63;;;0.70;;
80987;SDS011;70452;39.386;-3.210;2023-12-04T11:32:50;4.68;;;1.15;;
80987;SDS011;70452;39.386;-3.210;2023-12-04T11:35:30;3.45;;;0.75;;
80987;SDS011;70452;39.386;-3.210;2023-12-04T11:38:05;3.47;;;0.65;;
80987;SDS011;70452;39.386;-3.210;2023-12-04T11:40:34;4.60;;;0.60;;
80987;SDS011;70452;39.386;-3.210;2023-12-04T11:43:25;3.92;;;0.60;;
80987;SDS011;70452;39.386;-3.210;2023-12-04T11:46:09;3.45;;;0.85;;
80987;SDS011;70452;39.386;-3.210;2023-12-04T11:48:45;4.28;;;0.75;;
80987;SDS011;70452;39.386;-3.210;2023-12-04T11:54:16;4.15;;;0.80;;
80987;SDS011;70452;39.386;-3.210;2023-12-04T12:00:19;4.80;;;1.00;;
80987;SDS011;70452;39.386;-3.210;2023-12-04T12:05:43;4.28;;;0.90;;
80987;SDS011;70452;39.386;-3.210;2023-12-04T12:08:30;4.65;;;0.95;;
80987;SDS011;70452;39.386;-3.210;2023-12-04T12:10:57;4.82;;;1.30;;
80987;SDS011;70452;39.386;-3.210;2023-12-04T12:13:32;5.45;;;1.30;;
80987;SDS011;70452;39.386;-3.210;2023-12-04T12:19:04;4.63;;;1.15;;
80987;SDS011;70452;39.386;-3.210;2023-12-04T12:21:35;6.47;;;2.05;;
80987;SDS011;70452;39.386;-3.210;2023-12-04T12:24:01;5.55;;;1.25;;
80987;SDS011;70452;39.386;-3.210;2023-12-04T12:26:37;4.72;;;1.33;;
80987;SDS011;70452;39.386;-3.210;2023-12-04T12:29:15;6.45;;;1.70;;
80987;SDS011;70452;39.386;-3.210;2023-12-04T12:31:49;7.30;;;1.23;;
80987;SDS011;70452;39.386;-3.210;2023-12-04T12:34:21;5.00;;;1.17;;
80987;SDS011;70452;39.386;-3.210;2023-12-04T12:36:57;4.38;;;1.02;;
80987;SDS011;70452;39.386;-3.210;2023-12-04T12:39:32;5.38;;;1.63;;
80987;SDS011;70452;39.386;-3.210;2023-12-04T12:42:05;8.82;;;1.45;;
80987;SDS011;70452;39.386;-3.210;2023-12-04T12:47:40;30.95;;;14.63;;
80987;SDS011;70452;39.386;-3.210;2023-12-04T12:50:15;32.05;;;14.75;;
80987;SDS011;70452;39.386;-3.210;2023-12-04T12:52:50;32.53;;;19.40;;
80987;SDS011;70452;39.386;-3.210;2023-12-04T12:55:25;7.65;;;2.97;;
80987;SDS011;70452;39.386;-3.210;2023-12-04T12:58:05;6.97;;;2.28;;
80987;SDS011;70452;39.386;-3.210;2023-12-04T13:00:47;7.43;;;4.00;;
80987;SDS011;70452;39.386;-3.210;2023-12-04T13:03:25;6.03;;;2.38;;
80987;SDS011;70452;39.386;-3.210;2023-12-04T13:05:58;8.10;;;3.08;;
80987;SDS011;70452;39.386;-3.210;2023-12-04T13:08:33;6.82;;;2.97;;
80987;SDS011;70452;39.386;-3.210;2023-12-04T13:11:11;6.20;;;2.58;;
80987;SDS011;70452;39.386;-3.210;2023-12-04T13:13:48;9.32;;;4.22;;
80987;SDS011;70452;39.386;-3.210;2023-12-04T13:16:23;6.25;;;1.95;;
80987;SDS011;70452;39.386;-3.210;2023-12-04T13:19:02;6.45;;;3.35;;
80987;SDS011;70452;39.386;-3.210;2023-12-04T13:21:34;6.70;;;3.10;;
80987;SDS011;70452;39.386;-3.210;2023-12-04T13:24:37;7.82;;;2.70;;
80987;SDS011;70452;39.386;-3.210;2023-12-04T13:27:12;5.40;;;1.77;;
80987;SDS011;70452;39.386;-3.210;2023-12-04T13:29:52;7.78;;;2.30;;
80987;SDS011;70452;39.386;-3.210;2023-12-04T13:32:37;6.65;;;3.40;;
80987;SDS011;70452;39.386;-3.210;2023-12-04T13:35:18;4.95;;;1.40;;
80987;SDS011;70452;39.386;-3.210;2023-12-04T13:37:50;2.67;;;0.63;;
80987;SDS011;70452;39.386;-3.210;2023-12-04T13:40:33;3.30;;;0.50;;
80987;SDS011;70452;39.386;-3.210;2023-12-04T13:43:07;3.53;;;0.70;;
80987;SDS011;70452;39.386;-3.210;2023-12-04T13:45:54;6.57;;;0.85;;
80987;SDS011;70452;39.386;-3.210;2023-12-04T13:48:29;4.80;;;0.73;;
80987;SDS011;70452;39.386;-3.210;2023-12-04T13:51:13;3.50;;;0.57;;
80987;SDS011;70452;39.386;-3.210;2023-12-04T13:54:05;3.45;;;1.00;;
80987;SDS011;70452;39.386;-3.210;2023-12-04T13:56:55;3.90;;;0.85;;
80987;SDS011;70452;39.386;-3.210;2023-12-04T13:59:47;5.13;;;0.63;;
80987;SDS011;70452;39.386;-3.210;2023-12-04T14:02:21;4.80;;;0.90;;
80987;SDS011;70452;39.386;-3.210;2023-12-04T14:05:03;4.85;;;1.20;;
80987;SDS011;70452;39.386;-3.210;2023-12-04T14:07:46;4.30;;;0.75;;
80987;SDS011;70452;39.386;-3.210;2023-12-04T14:10:15;4.72;;;1.80;;
80987;SDS011;70452;39.386;-3.210;2023-12-04T14:15:33;2.58;;;0.50;;
80987;SDS011;70452;39.386;-3.210;2023-12-04T14:18:14;1.85;;;0.30;;
80987;SDS011;70452;39.386;-3.210;2023-12-04T14:20:54;2.90;;;0.60;;
80987;SDS011;70452;39.386;-3.210;2023-12-04T14:23:33;2.35;;;0.40;;
80987;SDS011;70452;39.386;-3.210;2023-12-04T14:26:04;2.58;;;0.38;;
80987;SDS011;70452;39.386;-3.210;2023-12-04T14:28:43;1.70;;;0.57;;
80987;SDS011;70452;39.386;-3.210;2023-12-04T14:31:33;10.57;;;4.55;;
80987;SDS011;70452;39.386;-3.210;2023-12-04T14:34:20;12.93;;;5.20;;
80987;SDS011;70452;39.386;-3.210;2023-12-04T14:37:08;13.27;;;7.03;;
80987;SDS011;70452;39.386;-3.210;2023-12-04T14:42:28;13.90;;;7.80;;
80987;SDS011;70452;39.386;-3.210;2023-12-04T14:45:06;19.80;;;10.23;;
80987;SDS011;70452;39.386;-3.210;2023-12-04T14:47:47;16.08;;;7.72;;
80987;SDS011;70452;39.386;-3.210;2023-12-04T14:50:24;18.63;;;10.45;;
80987;SDS011;70452;39.386;-3.210;2023-12-04T14:53:00;15.07;;;7.45;;
80987;SDS011;70452;39.386;-3.210;2023-12-04T14:55:50;18.80;;;11.18;;
80987;SDS011;70452;39.386;-3.210;2023-12-04T14:58:37;14.82;;;7.47;;
80987;SDS011;70452;39.386;-3.210;2023-12-04T15:01:34;8.65;;;4.43;;
80987;SDS011;70452;39.386;-3.210;2023-12-04T15:04:09;7.57;;;3.30;;
80987;SDS011;70452;39.386;-3.210;2023-12-04T15:06:57;8.50;;;4.03;;
80987;SDS011;70452;39.386;-3.210;2023-12-04T15:09:47;8.82;;;3.28;;
80987;SDS011;70452;39.386;-3.210;2023-12-04T15:12:34;8.63;;;2.63;;
80987;SDS011;70452;39.386;-3.210;2023-12-04T15:18:10;1.45;;;0.20;;
80987;SDS011;70452;39.386;-3.210;2023-12-04T15:21:27;2.17;;;0.10;;
80987;SDS011;70452;39.386;-3.210;2023-12-04T15:24:08;1.67;;;0.30;;
80987;SDS011;70452;39.386;-3.210;2023-12-04T15:26:47;4.72;;;1.23;;
80987;SDS011;70452;39.386;-3.210;2023-12-04T15:29:29;1.75;;;0.20;;
80987;SDS011;70452;39.386;-3.210;2023-12-04T15:32:11;5.07;;;0.93;;
80987;SDS011;70452;39.386;-3.210;2023-12-04T15:34:52;3.40;;;0.80;;
80987;SDS011;70452;39.386;-3.210;2023-12-04T15:37:26;3.40;;;0.70;;
80987;SDS011;70452;39.386;-3.210;2023-12-04T15:40:09;3.60;;;0.73;;
80987;SDS011;70452;39.386;-3.210;2023-12-04T15:42:45;2.88;;;0.70;;
80987;SDS011;70452;39.386;-3.210;2023-12-04T15:45:16;2.38;;;0.28;;
80987;SDS011;70452;39.386;-3.210;2023-12-04T15:48:13;4.20;;;0.63;;
80987;SDS011;70452;39.386;-3.210;2023-12-04T15:50:52;2.13;;;0.20;;
80987;SDS011;70452;39.386;-3.210;2023-12-04T15:53:27;2.78;;;0.43;;
80987;SDS011;70452;39.386;-3.210;2023-12-04T15:56:04;4.03;;;0.40;;
80987;SDS011;70452;39.386;-3.210;2023-12-04T15:58:59;2.30;;;0.35;;
80987;SDS011;70452;39.386;-3.210;2023-12-04T16:01:31;3.50;;;0.45;;
80987;SDS011;70452;39.386;-3.210;2023-12-04T16:04:00;2.83;;;0.38;;
80987;SDS011;70452;39.386;-3.210;2023-12-04T16:06:52;2.67;;;0.28;;
80987;SDS011;70452;39.386;-3.210;2023-12-04T16:09:34;3.85;;;0.50;;
80987;SDS011;70452;39.386;-3.210;2023-12-04T16:12:17;3.55;;;0.57;;
80987;SDS011;70452;39.386;-3.210;2023-12-04T16:14:50;1.73;;;0.30;;
80987;SDS011;70452;39.386;-3.210;2023-12-04T16:17:26;2.55;;;0.38;;
80987;SDS011;70452;39.386;-3.210;2023-12-04T16:19:54;4.78;;;0.40;;